Sacramento, California
Traffic Map
Current Weather Conditions
Sacramento, California
Clear
Clear
57°
Feels Like: 57°
Wind Chill: 57° Ceiling: Unl
Heat Index: 57° Visibility: 10mi
Dew Point: 51° Wind: 12mph
Humidity: 81% Direction: 200° (SSW)
Pressure: 29.67in Gusts: 20mph
Raw Report DataKSAC 250453Z AUTO 20010G17KT 10SM CLR 14/11 A2967 RMK AO2 SLP047 T01390106
Traffic Incident Summary
Active as of:
Severity:
Category:
InformationThere was an issue retrieving the traffic information for this location. Please try a different location or try again shortly.
Advertisements
Track Severe Weather on mobile